Time;durP1;ratioP1;P1;durP2;ratioP2;P2;SDS_P1;SDS_P2;PMS_P1;PMS_P2;Temp;Humidity;BMP_temperature;BMP_pressure;BME280_temperature;BME280_humidity;BME280_pressure;Samples;Min_cycle;Max_cycle;Signal;HPM_P1;HPM_P2
2022/12/19 00:01:00;;;;;;;42.83;22.00;;;2.10;99.90;;;;;;4976467;28;20580;-89
2022/12/19 00:03:26;;;;;;;37.53;19.60;;;2.20;99.90;;;;;;4976615;28;20060;-89
2022/12/19 00:05:52;;;;;;;35.92;18.38;;;0.90;99.90;;;;;;4993657;28;20049;-89
2022/12/19 00:08:17;;;;;;;39.80;22.58;;;1.90;99.90;;;;;;4993590;28;20500;-89
2022/12/19 00:10:43;;;;;;;44.25;23.15;;;0.90;99.90;;;;;;4993618;28;20057;-89
2022/12/19 00:13:08;;;;;;;42.53;22.20;;;0.90;99.90;;;;;;4977670;28;20057;-88
2022/12/19 00:15:35;;;;;;;45.33;23.55;;;2.00;99.90;;;;;;4994436;28;20137;-89
2022/12/19 00:18:00;;;;;;;43.45;21.67;;;0.90;99.90;;;;;;4993014;28;20050;-87
2022/12/19 00:20:26;;;;;;;41.88;21.75;;;1.10;99.90;;;;;;4993627;28;20482;-88
2022/12/19 00:22:52;;;;;;;40.78;22.88;;;0.90;99.90;;;;;;4993668;28;20085;-88
2022/12/19 00:25:17;;;;;;;43.55;21.95;;;2.00;99.90;;;;;;4993457;28;20042;-88
2022/12/19 00:27:43;;;;;;;42.33;22.63;;;0.90;99.90;;;;;;4977175;28;20049;-89
2022/12/19 00:30:10;;;;;;;47.60;22.85;;;1.60;99.90;;;;;;4977192;28;20075;-89
2022/12/19 00:32:36;;;;;;;43.58;21.65;;;1.00;99.90;;;;;;4976247;28;20139;-88
2022/12/19 00:35:01;;;;;;;43.00;21.48;;;1.80;99.90;;;;;;4977169;28;20050;-89
2022/12/19 00:37:27;;;;;;;44.28;23.05;;;1.00;99.90;;;;;;4977163;28;20060;-88
2022/12/19 00:39:53;;;;;;;41.10;21.98;;;1.10;99.90;;;;;;4993701;28;20081;-88
2022/12/19 00:42:19;;;;;;;45.80;23.85;;;1.00;99.90;;;;;;5009758;28;20049;-86
2022/12/19 00:44:46;;;;;;;43.67;21.85;;;1.40;99.90;;;;;;4977630;28;20490;-87
2022/12/19 00:47:11;;;;;;;40.60;22.20;;;2.00;99.90;;;;;;4961328;28;20056;-88
2022/12/19 00:49:37;;;;;;;38.58;22.05;;;2.50;99.90;;;;;;4993374;28;20053;-87
2022/12/19 00:52:03;;;;;;;40.78;21.63;;;1.20;99.90;;;;;;4993470;28;20105;-88
2022/12/19 00:54:28;;;;;;;45.38;22.60;;;1.20;99.90;;;;;;4992872;28;20108;-89
2022/12/19 00:56:54;;;;;;;45.58;22.35;;;1.20;99.90;;;;;;4960981;28;20061;-89
2022/12/19 00:59:19;;;;;;;48.25;22.05;;;1.20;99.90;;;;;;4976663;28;20061;-87
2022/12/19 01:01:45;;;;;;;43.05;22.35;;;1.30;99.90;;;;;;5009114;28;20137;-87
2022/12/19 01:04:12;;;;;;;41.10;22.85;;;1.30;99.90;;;;;;4992775;28;20050;-87
2022/12/19 01:06:38;;;;;;;46.80;23.63;;;1.40;99.90;;;;;;4993230;28;20129;-88
2022/12/19 01:09:04;;;;;;;43.88;23.38;;;1.30;99.90;;;;;;4977076;28;20136;-89
2022/12/19 01:14:13;;;;;;;43.50;22.10;;;1.30;99.90;;;;;;5013003;28;20052;-88
2022/12/19 01:16:39;;;;;;;43.45;21.73;;;2.30;99.90;;;;;;5012090;28;20132;-87
2022/12/19 01:19:06;;;;;;;43.35;22.10;;;1.40;99.90;;;;;;4996254;28;20112;-88
2022/12/19 01:21:35;;;;;;;45.45;23.33;;;2.40;99.90;;;;;;4979870;28;20046;-88
2022/12/19 01:24:01;;;;;;;44.25;21.15;;;1.70;99.90;;;;;;4995449;28;20085;-86
2022/12/19 01:26:27;;;;;;;46.72;23.38;;;1.40;99.90;;;;;;4979753;28;20053;-87
2022/12/19 01:28:52;;;;;;;48.05;25.02;;;2.20;99.90;;;;;;4996145;28;20046;-87
2022/12/19 01:31:18;;;;;;;50.42;23.77;;;1.60;99.90;;;;;;4996019;28;20042;-87
2022/12/19 01:33:43;;;;;;;43.78;22.27;;;1.40;99.90;;;;;;4978758;28;20050;-88
2022/12/19 01:36:09;;;;;;;40.83;21.45;;;1.30;99.90;;;;;;4995754;28;20041;-87
2022/12/19 01:38:35;;;;;;;47.30;23.52;;;2.20;99.90;;;;;;4979537;28;20482;-88
2022/12/19 01:41:01;;;;;;;44.22;23.23;;;2.60;99.90;;;;;;4995412;28;20496;-86
2022/12/19 01:43:31;;;;;;;47.17;24.20;;;1.40;99.90;;;;;;4996048;28;20062;-87
2022/12/19 01:45:58;;;;;;;49.75;23.20;;;1.40;99.90;;;;;;4979544;28;20064;-85
2022/12/19 01:48:34;;;;;;;43.80;22.48;;;1.60;99.90;;;;;;4963630;28;20100;-87
2022/12/19 01:51:10;;;;;;;49.17;23.30;;;1.40;99.90;;;;;;4995438;28;20053;-87
2022/12/19 01:53:43;;;;;;;48.47;23.02;;;1.50;99.90;;;;;;4994984;28;20053;-87
2022/12/19 01:56:09;;;;;;;47.50;23.95;;;1.60;99.90;;;;;;4963266;28;20172;-86
2022/12/19 01:58:36;;;;;;;47.25;22.42;;;2.40;99.90;;;;;;4978770;28;20584;-86
2022/12/19 02:01:02;;;;;;;42.90;22.80;;;2.90;99.90;;;;;;4978466;28;20061;-86
2022/12/19 02:03:28;;;;;;;45.35;21.58;;;1.70;99.90;;;;;;4961862;28;20096;-87
2022/12/19 02:05:54;;;;;;;44.33;21.33;;;1.70;99.90;;;;;;4995369;28;20445;-87
2022/12/19 02:08:20;;;;;;;43.83;23.08;;;1.80;99.90;;;;;;4962772;28;20395;-88
2022/12/19 02:10:46;;;;;;;42.05;21.95;;;1.80;99.90;;;;;;4962905;28;20042;-88
2022/12/19 02:13:11;;;;;;;43.75;21.10;;;1.70;99.90;;;;;;4978599;28;20050;-87
2022/12/19 02:15:49;;;;;;;43.28;21.83;;;3.00;99.90;;;;;;4978965;28;20061;-87
2022/12/19 02:18:29;;;;;;;48.50;22.60;;;1.80;99.90;;;;;;4978641;28;20054;-86
2022/12/19 02:21:05;;;;;;;44.33;21.70;;;1.80;99.90;;;;;;4978593;28;20544;-87
2022/12/19 02:23:43;;;;;;;48.22;22.38;;;1.80;99.90;;;;;;4963273;28;20101;-87
2022/12/19 02:26:39;;;;;;;48.00;23.27;;;1.70;99.90;;;;;;4994657;28;20049;-87
2022/12/19 02:29:15;;;;;;;41.28;22.40;;;1.70;99.90;;;;;;5016459;28;20073;-87
2022/12/19 02:31:56;;;;;;;45.97;23.20;;;2.00;99.90;;;;;;4962817;28;20512;-88
2022/12/19 02:34:27;;;;;;;48.92;23.27;;;1.80;99.90;;;;;;4965022;28;20132;-87
2022/12/19 02:37:04;;;;;;;51.03;24.98;;;1.80;99.90;;;;;;4995968;28;20061;-86
2022/12/19 02:39:37;;;;;;;47.72;24.48;;;1.70;99.90;;;;;;4979266;28;20140;-87
2022/12/19 02:42:03;;;;;;;53.70;25.17;;;1.90;99.90;;;;;;4979051;28;20407;-87
2022/12/19 02:44:38;;;;;;;52.03;23.63;;;1.10;99.90;;;;;;4978921;28;20046;-87
2022/12/19 02:47:04;;;;;;;54.08;25.27;;;2.40;99.90;;;;;;4978288;28;20097;-87
2022/12/19 02:49:32;;;;;;;48.88;23.67;;;1.70;99.90;;;;;;4978700;28;20461;-87
2022/12/19 02:52:11;;;;;;;47.85;23.63;;;1.70;99.90;;;;;;4978761;28;20668;-88
2022/12/19 02:54:37;;;;;;;52.83;25.08;;;1.70;99.90;;;;;;4963452;28;20448;-87
2022/12/19 02:57:12;;;;;;;61.38;26.98;;;1.70;99.90;;;;;;4962178;28;20116;-87
2022/12/19 03:00:02;;;;;;;54.20;25.83;;;2.70;99.90;;;;;;4977962;28;20105;-87
2022/12/19 03:02:32;;;;;;;54.60;25.08;;;1.70;99.90;;;;;;4978068;28;20556;-88
2022/12/19 03:05:13;;;;;;;57.90;25.67;;;1.70;99.90;;;;;;4994267;28;20433;-88
2022/12/19 03:07:48;;;;;;;61.45;28.02;;;1.70;99.90;;;;;;4962531;28;20057;-87
2022/12/19 03:10:36;;;;;;;58.90;24.67;;;1.70;99.90;;;;;;4978582;28;20050;-87
2022/12/19 03:13:24;;;;;;;57.20;25.48;;;1.70;99.90;;;;;;4994068;28;20115;-87
2022/12/19 03:15:50;;;;;;;56.70;26.52;;;1.70;99.90;;;;;;4995247;28;20064;-87
2022/12/19 03:18:16;;;;;;;59.33;26.63;;;2.80;99.90;;;;;;4978901;28;20057;-86
2022/12/19 03:21:00;;;;;;;67.32;28.17;;;2.10;99.90;;;;;;4979090;28;20498;-86
2022/12/19 03:23:26;;;;;;;;;;;1.70;99.90;;;;;;4994460;28;20379;-88
2022/12/19 03:25:55;;;;;;;65.95;26.00;;;1.60;99.90;;;;;;4977895;28;20015;-88
2022/12/19 03:28:25;;;;;;;64.22;27.48;;;1.70;99.90;;;;;;4978180;28;20937;-87
2022/12/19 03:30:51;;;;;;;62.42;26.52;;;2.00;99.90;;;;;;4978204;28;20573;-87
2022/12/19 03:33:17;;;;;;;60.28;26.75;;;1.70;99.90;;;;;;4993977;28;20046;-86
2022/12/19 03:35:42;;;;;;;62.00;26.58;;;1.70;99.90;;;;;;4962016;28;20103;-87
2022/12/19 03:38:08;;;;;;;64.78;28.38;;;1.90;99.90;;;;;;4978103;28;20549;-86
2022/12/19 03:40:34;;;;;;;64.28;28.25;;;1.90;99.90;;;;;;4994573;28;20046;-86
2022/12/19 03:43:10;;;;;;;69.70;29.92;;;2.70;99.90;;;;;;4977629;28;20058;-86
2022/12/19 03:45:55;;;;;;;68.32;29.13;;;1.90;99.90;;;;;;4979175;28;20049;-87
2022/12/19 03:48:20;;;;;;;;;;;1.90;99.90;;;;;;4994350;28;20077;-87
2022/12/19 03:51:03;;;;;;;70.68;28.15;;;2.70;99.90;;;;;;4994306;28;19972;-89
2022/12/19 03:53:56;;;;;;;69.25;28.77;;;2.00;99.90;;;;;;5010118;28;20049;-87
2022/12/19 03:56:43;;;;;;;72.15;29.75;;;2.00;99.90;;;;;;4993525;28;20180;-86
2022/12/19 03:59:11;;;;;;;74.85;32.53;;;2.00;99.90;;;;;;4990554;28;20089;-88
2022/12/19 04:01:37;;;;;;;70.35;30.08;;;3.00;99.90;;;;;;4927231;28;20141;-86
2022/12/19 04:04:03;;;;;;;63.67;27.05;;;2.00;99.90;;;;;;4942055;28;20184;-87
2022/12/19 04:06:29;;;;;;;68.97;29.75;;;2.10;99.90;;;;;;4959004;28;20527;-88
2022/12/19 04:08:56;;;;;;;79.45;32.72;;;3.10;99.90;;;;;;4959018;28;20058;-87
2022/12/19 04:11:22;;;;;;;80.90;31.85;;;2.20;99.90;;;;;;4927130;28;20487;-86
2022/12/19 04:13:53;;;;;;;76.43;30.13;;;2.40;99.90;;;;;;4926762;28;20054;-87
2022/12/19 04:16:24;;;;;;;80.95;31.80;;;2.30;99.90;;;;;;4943660;28;20053;-87
2022/12/19 04:18:57;;;;;;;80.40;32.10;;;2.40;99.90;;;;;;4943621;28;20155;-87
2022/12/19 04:21:30;;;;;;;74.85;30.50;;;3.00;99.90;;;;;;4975329;28;20059;-86
2022/12/19 04:24:05;;;;;;;72.70;31.73;;;2.90;99.90;;;;;;4943768;28;20148;-87
2022/12/19 04:26:31;;;;;;;86.18;33.97;;;2.50;99.90;;;;;;4943332;28;20546;-87
2022/12/19 04:28:59;;;;;;;77.93;31.35;;;2.60;99.90;;;;;;4943539;28;20126;-86
2022/12/19 04:31:25;;;;;;;72.43;30.25;;;2.90;99.90;;;;;;4943316;28;20505;-88
2022/12/19 04:33:50;;;;;;;78.57;32.40;;;3.30;99.90;;;;;;4958921;28;20206;-88
2022/12/19 04:36:16;;;;;;;81.47;31.73;;;3.80;99.90;;;;;;4958445;28;20113;-87
2022/12/19 04:38:41;;;;;;;74.28;31.73;;;2.70;99.90;;;;;;4957950;28;20042;-87
2022/12/19 04:41:07;;;;;;;80.00;33.78;;;3.70;99.90;;;;;;4957794;28;20047;-87
2022/12/19 04:43:33;;;;;;;75.72;31.90;;;2.80;99.90;;;;;;4990613;28;20052;-86
2022/12/19 04:45:59;;;;;;;74.60;29.88;;;2.80;99.90;;;;;;4976647;28;20073;-87
2022/12/19 04:48:24;;;;;;;63.67;26.95;;;3.00;99.90;;;;;;4962007;28;20060;-88
2022/12/19 04:50:50;;;;;;;76.97;32.60;;;2.90;99.90;;;;;;4945733;28;20050;-87
2022/12/19 04:53:16;;;;;;;71.00;31.48;;;4.50;99.90;;;;;;4977816;28;20397;-87
2022/12/19 04:55:43;;;;;;;74.95;30.05;;;3.60;99.90;;;;;;4994205;28;20476;-87
2022/12/19 04:58:08;;;;;;;74.30;32.88;;;3.00;99.90;;;;;;4994224;28;20133;-87
2022/12/19 05:00:34;;;;;;;73.15;29.70;;;4.30;99.90;;;;;;4992108;28;20145;-87
2022/12/19 05:03:00;;;;;;;76.82;32.42;;;3.80;99.90;;;;;;4964013;28;20053;-86
2022/12/19 05:05:25;;;;;;;72.15;32.08;;;3.70;99.90;;;;;;4980674;28;20108;-87
2022/12/19 05:07:51;;;;;;;69.43;32.30;;;3.00;99.90;;;;;;4981210;28;20486;-87
2022/12/19 05:10:17;;;;;;;70.95;32.53;;;3.80;99.90;;;;;;4997032;28;20049;-87
2022/12/19 05:12:42;;;;;;;72.60;31.98;;;3.40;99.90;;;;;;4997097;28;20112;-87
2022/12/19 05:15:08;;;;;;;73.13;32.70;;;3.30;99.90;;;;;;4980841;28;20100;-87
2022/12/19 05:17:34;;;;;;;74.50;32.35;;;3.20;99.90;;;;;;4948955;28;20053;-87
2022/12/19 05:20:00;;;;;;;68.80;30.35;;;3.30;99.90;;;;;;4998809;28;20811;-87
2022/12/19 05:22:25;;;;;;;71.47;31.42;;;3.20;99.90;;;;;;4987015;28;20064;-86
2022/12/19 05:24:51;;;;;;;72.90;29.05;;;3.60;99.90;;;;;;4984441;28;20051;-87
2022/12/19 05:27:17;;;;;;;69.00;31.10;;;3.20;99.90;;;;;;4980009;28;20490;-87
2022/12/19 05:29:42;;;;;;;79.30;34.60;;;4.50;99.90;;;;;;4967356;28;20079;-86
2022/12/19 05:32:08;;;;;;;64.57;28.88;;;4.10;99.90;;;;;;4961362;28;20046;-87
2022/12/19 05:34:33;;;;;;;68.03;31.73;;;3.30;99.90;;;;;;4976609;28;20046;-87
2022/12/19 05:37:01;;;;;;;69.65;28.58;;;3.40;99.90;;;;;;4944505;28;20134;-87
2022/12/19 05:39:27;;;;;;;62.83;27.33;;;3.40;99.90;;;;;;4961378;28;20058;-87
2022/12/19 05:41:53;;;;;;;72.28;31.00;;;3.50;99.90;;;;;;4944573;28;20053;-86
2022/12/19 05:44:19;;;;;;;68.57;29.95;;;3.40;99.90;;;;;;4960611;28;20093;-87
2022/12/19 05:46:44;;;;;;;56.05;25.90;;;4.70;99.90;;;;;;4976090;28;20080;-88
2022/12/19 05:49:10;;;;;;;64.13;29.27;;;4.60;99.90;;;;;;4975836;28;20789;-88
2022/12/19 05:51:35;;;;;;;61.88;29.45;;;3.60;99.90;;;;;;4992587;28;20054;-86
2022/12/19 05:54:01;;;;;;;65.93;28.73;;;3.60;99.90;;;;;;4976338;28;20375;-87
2022/12/19 05:56:27;;;;;;;64.45;29.17;;;3.50;99.90;;;;;;4943759;28;20116;-87
2022/12/19 05:58:53;;;;;;;66.45;29.65;;;4.50;99.90;;;;;;4960437;28;20054;-87
2022/12/19 06:01:21;;;;;;;66.50;28.92;;;3.60;99.90;;;;;;5013152;28;20517;-87
2022/12/19 06:03:46;;;;;;;58.22;27.13;;;4.20;99.90;;;;;;4978371;28;20054;-87
2022/12/19 06:06:14;;;;;;;57.80;25.83;;;3.80;99.90;;;;;;4963146;28;20394;-87
2022/12/19 06:08:40;;;;;;;59.88;27.77;;;3.80;99.90;;;;;;4995493;28;20145;-86
2022/12/19 06:11:06;;;;;;;48.10;23.75;;;3.90;99.90;;;;;;4995657;28;20057;-86
2022/12/19 06:13:32;;;;;;;54.78;25.15;;;4.70;99.90;;;;;;4962907;28;20111;-87
2022/12/19 06:15:59;;;;;;;57.60;25.67;;;3.90;99.90;;;;;;4963073;28;20056;-87
2022/12/19 06:18:25;;;;;;;56.13;25.58;;;3.90;99.90;;;;;;5011846;28;20068;-86
2022/12/19 06:21:04;;;;;;;38.65;19.58;;;3.00;99.90;;;;;;4963023;28;20104;-86
2022/12/19 06:23:31;;;;;;;52.55;26.08;;;4.00;99.90;;;;;;4979532;28;20449;-87
2022/12/19 06:25:57;;;;;;;51.30;25.13;;;5.00;99.90;;;;;;4978796;28;20046;-86
2022/12/19 06:28:23;;;;;;;61.78;28.38;;;4.00;99.90;;;;;;4962133;28;20064;-87
2022/12/19 06:30:49;;;;;;;44.53;21.48;;;4.10;99.90;;;;;;4978630;28;20484;-87
2022/12/19 06:33:15;;;;;;;49.85;23.63;;;4.00;99.90;;;;;;4994111;28;20137;-87
2022/12/19 06:35:40;;;;;;;52.33;24.92;;;4.20;99.90;;;;;;4994813;28;20061;-86
2022/12/19 06:38:06;;;;;;;47.97;24.30;;;4.20;99.90;;;;;;4994975;28;20049;-87
2022/12/19 06:43:16;;;;;;;49.67;24.08;;;4.20;99.90;;;;;;5010718;28;20058;-86
2022/12/19 06:45:42;;;;;;;47.35;22.58;;;4.20;99.90;;;;;;4962379;28;20400;-88
2022/12/19 06:48:07;;;;;;;50.22;22.85;;;5.00;99.90;;;;;;4995429;28;20216;-87
2022/12/19 06:50:34;;;;;;;50.10;24.48;;;4.30;99.90;;;;;;4979197;28;20544;-87
2022/12/19 06:53:00;;;;;;;45.05;22.17;;;5.00;99.90;;;;;;4979343;28;20820;-87
2022/12/19 06:55:26;;;;;;;42.70;21.55;;;4.30;99.90;;;;;;4963051;28;20073;-87
2022/12/19 06:57:51;;;;;;;40.63;21.38;;;4.30;99.90;;;;;;4978292;28;20144;-86
2022/12/19 07:00:17;;;;;;;41.08;20.92;;;4.40;99.90;;;;;;4978140;28;20163;-86
2022/12/19 07:02:44;;;;;;;40.58;20.42;;;4.30;99.90;;;;;;4994104;28;20478;-86
2022/12/19 07:05:10;;;;;;;45.13;21.42;;;4.40;99.90;;;;;;4978760;28;20821;-87
2022/12/19 07:07:35;;;;;;;32.47;17.70;;;5.20;99.90;;;;;;4977939;28;20051;-87
2022/12/19 07:10:03;;;;;;;35.88;18.88;;;4.40;99.90;;;;;;4994647;28;20109;-87
2022/12/19 07:12:28;;;;;;;37.88;20.50;;;4.40;99.90;;;;;;4977663;28;20065;-87
2022/12/19 07:14:54;;;;;;;43.63;22.58;;;5.00;99.90;;;;;;4993795;28;20042;-87
2022/12/19 07:17:20;;;;;;;37.70;20.15;;;4.50;99.90;;;;;;4994705;28;20086;-87
2022/12/19 07:19:46;;;;;;;40.17;20.42;;;4.40;99.90;;;;;;4978546;28;20045;-86
2022/12/19 07:22:12;;;;;;;40.22;19.15;;;4.70;99.90;;;;;;4978334;28;20049;-87
2022/12/19 07:24:37;;;;;;;35.83;19.73;;;4.50;99.90;;;;;;4994233;28;20069;-86
2022/12/19 07:27:03;;;;;;;44.05;20.35;;;4.70;99.90;;;;;;4978744;28;20038;-87
2022/12/19 07:29:29;;;;;;;44.00;20.80;;;4.50;99.90;;;;;;4978720;28;20049;-87
2022/12/19 07:31:54;;;;;;;39.15;18.27;;;4.60;99.90;;;;;;4977583;28;20127;-88
2022/12/19 07:34:20;;;;;;;37.60;20.13;;;5.40;99.90;;;;;;4977229;28;20056;-87
2022/12/19 07:36:46;;;;;;;37.88;19.45;;;4.60;99.90;;;;;;4994441;28;20385;-87
2022/12/19 07:39:11;;;;;;;38.45;18.92;;;5.40;99.90;;;;;;4994889;28;20133;-87
2022/12/19 07:41:37;;;;;;;38.00;19.80;;;5.60;99.90;;;;;;4978712;28;20049;-87
2022/12/19 07:44:04;;;;;;;38.80;20.45;;;4.60;99.90;;;;;;4994538;28;20042;-87
2022/12/19 07:46:29;;;;;;;39.05;19.90;;;4.60;99.90;;;;;;4994097;28;20050;-84
2022/12/19 07:48:56;;;;;;;34.85;18.52;;;4.60;99.90;;;;;;4993942;28;20501;-84
2022/12/19 07:51:21;;;;;;;35.08;16.90;;;4.70;99.90;;;;;;4993405;28;20057;-84
2022/12/19 07:53:47;;;;;;;37.53;18.17;;;6.10;99.90;;;;;;4993445;28;20042;-84
2022/12/19 07:56:13;;;;;;;30.98;16.58;;;4.70;99.90;;;;;;4976888;28;20050;-85
2022/12/19 07:58:39;;;;;;;30.40;15.73;;;6.00;99.90;;;;;;4990449;28;20050;-85
2022/12/19 08:01:05;;;;;;;33.22;17.05;;;4.90;99.90;;;;;;4941416;28;20062;-85
2022/12/19 08:03:31;;;;;;;35.53;18.60;;;4.90;99.90;;;;;;4960184;28;20054;-85
2022/12/19 08:06:00;;;;;;;32.80;17.95;;;4.90;99.90;;;;;;4977018;28;20035;-86
2022/12/19 08:08:27;;;;;;;35.95;17.50;;;4.90;99.90;;;;;;4942308;28;20133;-85
2022/12/19 08:10:53;;;;;;;37.03;18.70;;;5.30;99.90;;;;;;4941629;28;20486;-84
2022/12/19 08:13:18;;;;;;;33.53;16.92;;;4.90;99.90;;;;;;4990876;28;20046;-86
2022/12/19 08:15:44;;;;;;;37.33;17.88;;;5.20;99.90;;;;;;4941727;28;20069;-86
2022/12/19 08:18:09;;;;;;;35.50;17.80;;;5.00;99.90;;;;;;4958656;28;20528;-86
2022/12/19 08:20:35;;;;;;;37.38;18.80;;;5.00;99.90;;;;;;4944433;28;20136;-86
2022/12/19 08:23:01;;;;;;;34.50;17.55;;;5.10;99.90;;;;;;4945550;28;20089;-91
2022/12/19 08:25:26;;;;;;;32.25;18.02;;;5.00;99.90;;;;;;4949832;28;20054;-88
2022/12/19 08:27:52;;;;;;;28.73;15.07;;;5.90;99.90;;;;;;4966241;28;20073;-88
2022/12/19 08:30:18;;;;;;;33.80;16.65;;;6.50;99.90;;;;;;4962185;28;20394;-88
2022/12/19 08:32:44;;;;;;;22.85;13.00;;;5.20;99.90;;;;;;4961485;28;20588;-87
2022/12/19 08:35:09;;;;;;;26.85;14.95;;;5.30;99.90;;;;;;4961702;28;20514;-88
2022/12/19 08:37:35;;;;;;;29.50;14.80;;;5.60;99.90;;;;;;4945725;28;20141;-87
2022/12/19 08:40:01;;;;;;;28.33;14.82;;;5.40;99.90;;;;;;4977899;28;20050;-87
2022/12/19 08:42:26;;;;;;;27.95;15.25;;;5.60;99.90;;;;;;4961666;28;20058;-88
2022/12/19 08:44:52;;;;;;;26.33;15.13;;;5.50;99.90;;;;;;4946220;28;20050;-91
2022/12/19 08:47:18;;;;;;;23.70;13.88;;;5.60;99.90;;;;;;4961725;28;20057;-84
2022/12/19 08:49:43;;;;;;;28.50;15.20;;;5.50;99.90;;;;;;4961365;28;20132;-88
2022/12/19 08:52:09;;;;;;;22.75;12.95;;;6.00;99.90;;;;;;4962071;28;20105;-84
2022/12/19 08:54:35;;;;;;;23.70;14.00;;;5.70;99.90;;;;;;4945280;28;20545;-86
2022/12/19 08:57:00;;;;;;;22.60;12.60;;;5.70;99.90;;;;;;4960535;28;20082;-84
2022/12/19 08:59:26;;;;;;;21.67;12.02;;;5.80;99.90;;;;;;4992835;28;20054;-84
2022/12/19 09:01:52;;;;;;;29.77;15.38;;;5.80;99.90;;;;;;4960888;28;20065;-86
2022/12/19 09:04:17;;;;;;;27.92;15.25;;;5.70;99.90;;;;;;4959870;28;20042;-84
2022/12/19 09:06:43;;;;;;;29.48;16.40;;;5.80;99.90;;;;;;4976184;28;20061;-84
2022/12/19 09:09:09;;;;;;;26.98;14.43;;;5.80;99.90;;;;;;4976749;28;20454;-85
2022/12/19 09:11:34;;;;;;;25.33;14.63;;;5.80;99.90;;;;;;4959946;28;20051;-85
2022/12/19 09:14:00;;;;;;;25.77;14.60;;;5.80;99.90;;;;;;4960066;28;20046;-84
2022/12/19 09:16:27;;;;;;;26.23;14.82;;;5.90;99.90;;;;;;4976304;28;20058;-84
2022/12/19 09:18:54;;;;;;;26.00;15.60;;;6.00;99.90;;;;;;4928624;28;20050;-86
2022/12/19 09:21:21;;;;;;;28.73;16.20;;;6.00;99.90;;;;;;4945001;28;20050;-84
2022/12/19 09:23:51;;;;;;;26.30;16.17;;;6.10;99.90;;;;;;4960443;28;20182;-84
2022/12/19 09:26:17;;;;;;;27.55;16.25;;;6.10;99.90;;;;;;4960778;28;20497;-84
2022/12/19 09:28:43;;;;;;;27.52;15.25;;;6.10;99.90;;;;;;4960413;28;20054;-84
2022/12/19 09:31:11;;;;;;;28.10;17.52;;;7.00;99.90;;;;;;4928052;28;20078;-84
2022/12/19 09:33:37;;;;;;;30.58;17.02;;;6.20;99.90;;;;;;4927424;28;20054;-85
2022/12/19 09:36:03;;;;;;;24.25;14.07;;;7.70;99.90;;;;;;4943792;28;20055;-85
2022/12/19 09:38:31;;;;;;;25.73;15.93;;;6.30;99.90;;;;;;4960132;28;20057;-85
2022/12/19 09:40:57;;;;;;;34.95;20.65;;;6.50;99.90;;;;;;4960198;28;20466;-84
2022/12/19 09:43:32;;;;;;;35.58;20.02;;;6.40;99.90;;;;;;4977569;28;20062;-85
2022/12/19 09:46:16;;;;;;;35.65;21.58;;;6.40;99.90;;;;;;4977478;28;20042;-86
2022/12/19 09:48:44;;;;;;;29.52;17.20;;;6.50;99.90;;;;;;4969078;28;20046;-85
2022/12/19 09:51:28;;;;;;;32.97;18.08;;;6.50;99.90;;;;;;4960003;28;20089;-84
2022/12/19 09:54:12;;;;;;;29.55;17.88;;;6.60;99.90;;;;;;4975094;28;20057;-84
2022/12/19 09:56:38;;;;;;;32.60;18.73;;;6.60;99.90;;;;;;4976202;28;20402;-84
2022/12/19 09:59:12;;;;;;;35.33;19.20;;;6.60;99.90;;;;;;4975650;28;20085;-85
2022/12/19 10:01:55;;;;;;;32.38;19.80;;;6.60;99.90;;;;;;4979002;28;20053;-85
2022/12/19 10:04:20;;;;;;;29.13;16.55;;;6.60;99.90;;;;;;4978567;28;20061;-85
2022/12/19 10:06:46;;;;;;;37.00;20.30;;;7.00;99.90;;;;;;4979519;28;20041;-85
2022/12/19 10:09:18;;;;;;;35.13;19.90;;;6.70;99.90;;;;;;4996175;28;20192;-85
2022/12/19 10:12:10;;;;;;;32.00;19.27;;;7.00;99.90;;;;;;4980255;28;20049;-85
2022/12/19 10:15:07;;;;;;;29.80;18.05;;;6.70;99.90;;;;;;4994938;28;20401;-85
2022/12/19 10:17:37;;;;;;;31.70;16.90;;;6.70;99.90;;;;;;4978330;28;20132;-85
2022/12/19 10:20:24;;;;;;;33.95;18.80;;;6.80;99.90;;;;;;5010640;28;20137;-85
2022/12/19 10:23:14;;;;;;;28.65;17.42;;;6.80;99.90;;;;;;4978419;28;20057;-86
2022/12/19 10:26:09;;;;;;;26.50;16.45;;;6.80;99.90;;;;;;4979178;28;20058;-85
2022/12/19 10:28:57;;;;;;;24.70;13.75;;;6.90;99.90;;;;;;4998172;28;20066;-88
2022/12/19 10:31:32;;;;;;;31.95;17.75;;;7.00;99.90;;;;;;4978547;28;20137;-86
2022/12/19 10:34:19;;;;;;;29.27;16.77;;;6.90;99.90;;;;;;4977459;28;20497;-85
2022/12/19 10:36:54;;;;;;;26.52;15.48;;;7.00;99.90;;;;;;4994625;28;20120;-85
2022/12/19 10:39:30;;;;;;;34.95;17.83;;;6.90;99.90;;;;;;4994292;28;20427;-85
2022/12/19 10:41:59;;;;;;;23.95;13.27;;;7.20;99.90;;;;;;4977931;28;20050;-85
2022/12/19 10:44:25;;;;;;;27.23;16.58;;;7.00;99.90;;;;;;4993979;28;20054;-85
2022/12/19 10:46:51;;;;;;;30.00;17.38;;;7.00;99.90;;;;;;4978247;28;20046;-86
2022/12/19 10:49:18;;;;;;;27.10;17.65;;;7.10;99.90;;;;;;4994524;28;20050;-86
2022/12/19 10:52:03;;;;;;;29.77;16.65;;;7.00;99.90;;;;;;4993814;28;20141;-85
2022/12/19 10:54:42;;;;;;;28.25;16.88;;;7.10;99.90;;;;;;4993482;28;20065;-86
2022/12/19 10:57:24;;;;;;;24.55;16.17;;;7.10;99.90;;;;;;4978062;28;20062;-87
2022/12/19 11:00:14;;;;;;;25.38;15.27;;;7.10;99.90;;;;;;4994027;28;20061;-84
2022/12/19 11:02:41;;;;;;;24.30;15.55;;;7.50;99.90;;;;;;4976735;28;20053;-87
2022/12/19 11:05:24;;;;;;;23.42;14.73;;;7.10;99.90;;;;;;4994093;28;20139;-86
2022/12/19 11:08:05;;;;;;;25.88;15.32;;;7.10;99.90;;;;;;4994836;28;20057;-85
2022/12/19 11:10:47;;;;;;;27.20;15.80;;;7.20;99.90;;;;;;4978880;28;20050;-87
2022/12/19 11:13:28;;;;;;;22.85;13.10;;;7.20;99.90;;;;;;4994255;28;20046;-88
2022/12/19 11:15:56;;;;;;;21.90;12.77;;;7.20;99.90;;;;;;4994947;28;20046;-87
2022/12/19 11:18:22;;;;;;;19.35;13.10;;;7.30;99.90;;;;;;4995684;28;20138;-86
2022/12/19 11:21:16;;;;;;;23.13;15.13;;;7.40;99.90;;;;;;4977895;28;20452;-85
2022/12/19 11:23:53;;;;;;;23.35;14.27;;;7.30;99.90;;;;;;4994185;28;20053;-88
2022/12/19 11:26:39;;;;;;;25.33;14.88;;;7.40;99.90;;;;;;4977677;28;20768;-86
2022/12/19 11:29:36;;;;;;;27.50;16.38;;;7.30;99.90;;;;;;4993631;28;20180;-85
2022/12/19 11:32:02;;;;;;;27.55;16.17;;;7.40;99.90;;;;;;4976815;28;20049;-86
2022/12/19 11:34:30;;;;;;;22.52;13.88;;;7.30;99.90;;;;;;4976431;28;20095;-85
2022/12/19 11:37:12;;;;;;;25.60;15.48;;;7.50;99.90;;;;;;4977320;28;20527;-86
2022/12/19 11:39:50;;;;;;;24.73;14.35;;;7.40;99.90;;;;;;4976900;28;20046;-86
2022/12/19 11:42:34;;;;;;;23.30;14.32;;;7.40;99.90;;;;;;4976529;28;20054;-87
2022/12/19 11:45:09;;;;;;;21.17;14.88;;;7.50;99.90;;;;;;4977267;28;20060;-85
2022/12/19 11:47:40;;;;;;;21.42;13.60;;;7.50;99.90;;;;;;4993562;28;20045;-86
2022/12/19 11:50:17;;;;;;;22.90;15.23;;;7.50;99.90;;;;;;4976556;28;20502;-87
2022/12/19 11:52:46;;;;;;;24.83;14.52;;;7.50;99.90;;;;;;5009240;28;20486;-87
2022/12/19 11:55:43;;;;;;;22.35;14.85;;;7.50;99.90;;;;;;4991987;28;20647;-85
2022/12/19 11:58:10;;;;;;;21.05;14.15;;;7.50;99.90;;;;;;4985956;28;20464;-87
2022/12/19 12:00:36;;;;;;;23.75;15.18;;;7.50;99.90;;;;;;4961348;28;20089;-88
2022/12/19 12:03:06;;;;;;;22.80;14.73;;;7.50;99.90;;;;;;4953262;28;20177;-85
2022/12/19 12:05:41;;;;;;;22.35;14.45;;;7.50;99.90;;;;;;4983375;28;20058;-86
2022/12/19 12:13:20;;;;;;;21.50;14.45;;;7.60;99.90;;;;;;5351863;23;20057;-88
2022/12/19 12:15:52;;;;;;;24.17;14.70;;;6.00;99.90;;;;;;4968139;28;20168;-88
2022/12/19 12:18:34;;;;;;;23.13;15.07;;;7.50;99.90;;;;;;5001551;28;20050;-88
2022/12/19 12:21:22;;;;;;;23.85;15.27;;;7.60;99.90;;;;;;5016528;28;20056;-87
2022/12/19 12:23:47;;;;;;;22.52;14.25;;;7.60;99.90;;;;;;5016365;28;20638;-88
2022/12/19 12:26:31;;;;;;;24.63;14.95;;;7.60;99.90;;;;;;5016323;28;20054;-87
2022/12/19 12:28:59;;;;;;;21.17;14.23;;;7.50;99.90;;;;;;5000883;28;20481;-87
2022/12/19 12:31:37;;;;;;;17.73;13.10;;;7.60;99.90;;;;;;5000210;28;20050;-87
2022/12/19 12:34:12;;;;;;;22.65;14.55;;;7.60;99.90;;;;;;5016026;28;20132;-86
2022/12/19 12:37:20;;;;;;;19.35;13.00;;;7.50;99.90;;;;;;4983794;28;20053;-87
2022/12/19 12:39:51;;;;;;;22.50;14.85;;;7.50;99.90;;;;;;4990233;28;20064;-87
2022/12/19 12:42:55;;;;;;;25.42;15.00;;;7.60;99.90;;;;;;5016566;28;20050;-86
2022/12/19 12:45:40;;;;;;;23.13;14.40;;;7.60;99.90;;;;;;4969740;28;20061;-87
2022/12/19 12:48:27;;;;;;;17.75;12.23;;;7.60;99.90;;;;;;4983046;28;20107;-87
2022/12/19 12:50:53;;;;;;;19.83;13.90;;;7.70;99.90;;;;;;4967601;28;20485;-87
2022/12/19 12:53:21;;;;;;;23.13;16.27;;;7.70;99.90;;;;;;4983479;28;20034;-85
2022/12/19 12:55:47;;;;;;;19.75;12.95;;;7.90;99.90;;;;;;5015399;28;20057;-87
2022/12/19 12:58:53;;;;;;;23.15;14.45;;;7.80;99.90;;;;;;4997070;28;20042;-87
2022/12/19 13:01:35;;;;;;;20.08;13.65;;;7.80;99.90;;;;;;5013857;28;20050;-86
2022/12/19 13:04:11;;;;;;;21.77;14.27;;;7.80;99.90;;;;;;4964045;28;20054;-86